createdAt,value
2022-09-06T00:05:20.095Z,101543.59
2022-09-06T00:08:23.466Z,101540.00
2022-09-06T00:10:45.579Z,101526.78
2022-09-06T00:13:09.540Z,101518.31
2022-09-06T00:15:31.720Z,101505.84
2022-09-06T00:17:53.554Z,101506.56
2022-09-06T00:20:15.648Z,101518.19
2022-09-06T00:22:38.894Z,101526.69
2022-09-06T00:25:00.802Z,101533.94
2022-09-06T00:27:22.811Z,101526.72
2022-09-06T00:29:44.585Z,101525.97
2022-09-06T00:32:06.545Z,101531.59
2022-09-06T00:34:28.795Z,101523.59
2022-09-06T00:36:50.651Z,101522.34
2022-09-06T00:39:12.627Z,101533.56
2022-09-06T00:41:34.515Z,101528.38
2022-09-06T00:43:56.787Z,101528.78
2022-09-06T00:46:25.101Z,101532.78
2022-09-06T00:48:56.407Z,101544.44
2022-09-06T00:51:22.143Z,101566.88
2022-09-06T00:53:45.080Z,101603.66
2022-09-06T00:56:07.477Z,101628.84
2022-09-06T00:58:29.761Z,101635.16
2022-09-06T01:00:51.584Z,101618.28
2022-09-06T01:03:14.302Z,101622.66
2022-09-06T01:06:17.358Z,101632.59
2022-09-06T01:09:01.746Z,101618.88
2022-09-06T01:11:44.002Z,101634.00
2022-09-06T01:14:17.816Z,101646.31
2022-09-06T01:16:52.129Z,101635.44
2022-09-06T01:20:02.243Z,101631.75
2022-09-06T01:23:21.043Z,101626.47
2022-09-06T01:26:19.944Z,101632.78
2022-09-06T01:29:01.947Z,101616.22
2022-09-06T01:31:52.368Z,101610.97
2022-09-06T01:34:38.500Z,101610.97
2022-09-06T01:37:10.766Z,101601.72
2022-09-06T01:39:35.585Z,101586.91
2022-09-06T01:42:00.313Z,101582.94
2022-09-06T01:44:25.887Z,101568.03
2022-09-06T01:47:18.067Z,101564.00
2022-09-06T01:49:58.152Z,101562.69
2022-09-06T01:52:41.855Z,101565.03
2022-09-06T01:55:34.727Z,101548.22
2022-09-06T01:58:14.965Z,101533.31
2022-09-06T02:01:03.459Z,101534.53
2022-09-06T02:03:51.365Z,101520.13
2022-09-06T02:06:22.560Z,101509.78
2022-09-06T02:08:58.332Z,101493.81
2022-09-06T02:11:21.124Z,101487.78
2022-09-06T02:13:54.994Z,101474.47
2022-09-06T02:16:25.371Z,101455.28
2022-09-06T02:19:20.043Z,101439.69
2022-09-06T02:22:06.413Z,101430.09
2022-09-06T02:27:13.178Z,101383.31
2022-09-06T02:29:35.899Z,101366.47
2022-09-06T02:32:14.400Z,101374.44
2022-09-06T02:34:40.095Z,101367.63
2022-09-06T02:37:02.091Z,101362.44
2022-09-06T02:39:25.037Z,101357.59
2022-09-06T02:41:48.273Z,101364.00
2022-09-06T02:44:10.115Z,101372.84
2022-09-06T02:46:32.124Z,101380.47
2022-09-06T02:48:53.984Z,101381.69
2022-09-06T02:51:16.037Z,101386.09
2022-09-06T02:53:38.277Z,101374.53
2022-09-06T02:56:00.733Z,101380.91
2022-09-06T02:58:22.794Z,101378.50
2022-09-06T03:00:45.017Z,101366.91
2022-09-06T03:03:07.617Z,101375.66
2022-09-06T03:05:30.015Z,101384.06
2022-09-06T03:07:52.961Z,101403.25
2022-09-06T03:10:15.213Z,101415.28
2022-09-06T03:12:37.143Z,101421.69
2022-09-06T03:14:58.944Z,101424.09
2022-09-06T03:17:20.758Z,101437.66
2022-09-06T03:19:42.518Z,101427.22
2022-09-06T03:22:04.339Z,101431.59
2022-09-06T03:24:26.154Z,101434.78
2022-09-06T03:26:47.952Z,101423.59
2022-09-06T03:29:09.754Z,101425.63
2022-09-06T03:31:31.545Z,101426.06
2022-09-06T03:33:53.366Z,101428.06
2022-09-06T03:36:15.803Z,101430.50
2022-09-06T03:38:37.610Z,101430.50
2022-09-06T03:40:59.424Z,101424.50
2022-09-06T03:43:24.406Z,101412.94
2022-09-06T03:45:49.770Z,101422.47
2022-09-06T03:48:11.642Z,101420.13
2022-09-06T03:50:33.511Z,101414.94
2022-09-06T03:52:55.329Z,101414.53
2022-09-06T03:55:17.250Z,101409.78
2022-09-06T03:57:39.098Z,101408.16
2022-09-06T04:00:00.919Z,101418.53
2022-09-06T04:02:22.799Z,101418.09
2022-09-06T04:04:44.717Z,101419.25
2022-09-06T04:07:06.596Z,101404.84
2022-09-06T04:09:28.590Z,101418.84
2022-09-06T04:11:50.406Z,101419.22
2022-09-06T04:14:12.244Z,101421.22
2022-09-06T04:16:34.217Z,101420.00
2022-09-06T04:18:56.028Z,101420.72
2022-09-06T04:21:17.919Z,101416.63
2022-09-06T04:23:40.205Z,101411.38
2022-09-06T04:26:02.644Z,101420.53
2022-09-06T04:28:26.641Z,101419.66
2022-09-06T04:31:02.154Z,101419.22
2022-09-06T04:33:28.049Z,101422.72
2022-09-06T04:35:50.409Z,101421.03
2022-09-06T04:38:12.233Z,101424.97
2022-09-06T04:40:34.063Z,101425.31
2022-09-06T04:42:55.946Z,101424.47
2022-09-06T04:45:17.853Z,101432.00
2022-09-06T04:47:39.676Z,101435.56
2022-09-06T04:50:01.551Z,101437.47
2022-09-06T04:52:25.989Z,101441.41
2022-09-06T04:54:51.383Z,101444.94
2022-09-06T04:57:13.212Z,101434.91
2022-09-06T04:59:35.334Z,101445.22
2022-09-06T05:01:57.416Z,101443.13
2022-09-06T05:04:19.390Z,101448.66
2022-09-06T05:06:41.937Z,101447.41
2022-09-06T05:09:03.891Z,101447.78
2022-09-06T05:11:25.924Z,101454.88
2022-09-06T05:13:47.941Z,101454.47
2022-09-06T05:16:10.540Z,101462.41
2022-09-06T05:18:33.090Z,101464.78
2022-09-06T05:20:55.598Z,101469.13
2022-09-06T05:23:17.819Z,101472.66
2022-09-06T05:25:39.596Z,101469.00
2022-09-06T05:28:01.646Z,101474.50
2022-09-06T05:30:23.521Z,101480.41
2022-09-06T05:32:45.417Z,101483.16
2022-09-06T05:35:07.671Z,101482.25
2022-09-06T05:37:29.482Z,101473.84
2022-09-06T05:39:51.766Z,101471.84
2022-09-06T05:42:18.559Z,101470.66
2022-09-06T05:44:41.030Z,101477.13
2022-09-06T05:47:03.806Z,101482.41
2022-09-06T05:49:25.581Z,101482.88
2022-09-06T05:51:52.038Z,101479.78
2022-09-06T05:54:13.834Z,101489.03
2022-09-06T05:56:35.686Z,101487.91
2022-09-06T05:58:57.549Z,101490.38
2022-09-06T06:01:29.458Z,101481.34
2022-09-06T06:03:58.858Z,101491.84
2022-09-06T06:06:24.245Z,101493.91
2022-09-06T06:08:46.622Z,101483.69
2022-09-06T06:11:08.507Z,101487.75
2022-09-06T06:13:34.775Z,101492.66
2022-09-06T06:15:56.746Z,101491.56
2022-09-06T06:18:18.536Z,101493.66
2022-09-06T06:20:40.328Z,101493.75
2022-09-06T06:23:02.214Z,101483.06
2022-09-06T06:25:26.403Z,101500.72
2022-09-06T06:27:48.263Z,101494.06
2022-09-06T06:30:11.697Z,101499.75
2022-09-06T06:32:36.034Z,101503.03
2022-09-06T06:34:57.849Z,101494.34
2022-09-06T06:37:19.694Z,101499.28
2022-09-06T06:39:41.552Z,101493.81
2022-09-06T06:42:03.703Z,101489.22
2022-09-06T06:44:36.380Z,101491.44
2022-09-06T06:46:58.810Z,101485.66
2022-09-06T06:49:20.602Z,101491.03
2022-09-06T06:51:42.386Z,101478.72
2022-09-06T06:54:05.867Z,101483.66
2022-09-06T06:56:27.609Z,101474.94
2022-09-06T06:58:52.983Z,101471.44
2022-09-06T07:01:16.783Z,101466.25
2022-09-06T07:03:38.712Z,101460.69
2022-09-06T07:08:29.492Z,101456.75
2022-09-06T07:10:51.401Z,101457.19
2022-09-06T07:13:13.980Z,101458.78
2022-09-06T07:15:35.842Z,101462.81
2022-09-06T07:17:58.138Z,101455.22
2022-09-06T07:20:23.232Z,101456.44
2022-09-06T07:22:45.034Z,101459.66
2022-09-06T07:25:09.366Z,101458.09
2022-09-06T07:27:47.327Z,101449.69
2022-09-06T07:30:11.456Z,101443.66
2022-09-06T07:32:36.560Z,101453.25
2022-09-06T07:34:58.363Z,101460.47
2022-09-06T07:37:20.155Z,101454.47
2022-09-06T07:39:42.072Z,101454.84
2022-09-06T07:42:04.207Z,101463.66
2022-09-06T07:44:26.538Z,101460.44
2022-09-06T07:46:48.420Z,101454.75
2022-09-06T07:49:10.292Z,101446.66
2022-09-06T07:51:32.479Z,101452.66
2022-09-06T07:54:07.363Z,101456.63
2022-09-06T07:56:37.738Z,101447.72
2022-09-06T07:58:59.728Z,101448.88
2022-09-06T08:01:31.885Z,101448.41
2022-09-06T08:03:54.303Z,101444.34
2022-09-06T08:06:16.236Z,101445.88
2022-09-06T08:11:24.699Z,101443.34
2022-09-06T08:13:54.731Z,101442.84
2022-09-06T08:16:17.238Z,101436.69
2022-09-06T08:18:39.232Z,101441.38
2022-09-06T08:21:13.490Z,101436.03
2022-09-06T08:23:35.499Z,101437.97
2022-09-06T08:25:59.053Z,101440.72
2022-09-06T08:28:20.839Z,101432.13
2022-09-06T08:30:43.459Z,101424.72
2022-09-06T08:33:05.354Z,101424.56
2022-09-06T08:35:27.512Z,101422.84
2022-09-06T08:37:49.301Z,101424.00
2022-09-06T08:40:13.119Z,101421.88
2022-09-06T08:42:40.243Z,101422.91
2022-09-06T08:45:04.144Z,101429.22
2022-09-06T08:47:26.235Z,101425.00
2022-09-06T08:50:00.893Z,101419.56
2022-09-06T08:52:54.355Z,101420.19
2022-09-06T08:55:54.306Z,101420.88
2022-09-06T08:58:55.989Z,101418.72
2022-09-06T09:01:29.998Z,101402.03
2022-09-06T09:03:58.322Z,101400.81
2022-09-06T09:06:20.153Z,101397.84
2022-09-06T09:09:15.062Z,101403.31
2022-09-06T09:11:43.824Z,101405.94
2022-09-06T09:14:43.376Z,101415.44
2022-09-06T09:17:22.685Z,101404.78
2022-09-06T09:19:44.555Z,101403.34
2022-09-06T09:22:06.399Z,101401.56
2022-09-06T09:24:28.170Z,101391.69
2022-09-06T09:27:03.240Z,101395.25
2022-09-06T09:29:28.654Z,101399.53
2022-09-06T09:31:56.499Z,101398.88
2022-09-06T09:34:38.786Z,101402.34
2022-09-06T09:40:36.154Z,101396.50
2022-09-06T09:43:16.437Z,101395.19
2022-09-06T09:45:38.335Z,101394.31
2022-09-06T09:48:24.538Z,101381.53
2022-09-06T09:50:46.822Z,101388.97
2022-09-06T09:53:16.001Z,101380.97
2022-09-06T09:55:39.755Z,101392.13
2022-09-06T09:58:01.709Z,101389.50
2022-09-06T10:00:40.089Z,101387.53
2022-09-06T10:03:24.098Z,101391.00
2022-09-06T10:06:03.816Z,101391.19
2022-09-06T10:08:30.511Z,101386.56
2022-09-06T10:10:52.536Z,101395.66
2022-09-06T10:13:21.974Z,101384.22
2022-09-06T10:15:43.999Z,101388.00
2022-09-06T10:18:32.791Z,101391.09
2022-09-06T10:21:19.813Z,101394.63
2022-09-06T10:24:31.198Z,101387.63
2022-09-06T10:26:59.198Z,101373.44
2022-09-06T10:29:52.990Z,101367.47
2022-09-06T10:33:00.385Z,101372.03
2022-09-06T10:35:32.356Z,101374.66
2022-09-06T10:38:17.243Z,101378.84
2022-09-06T10:41:06.538Z,101383.09
2022-09-06T10:44:14.179Z,101380.13
2022-09-06T10:46:37.091Z,101383.66
2022-09-06T10:48:58.893Z,101384.81
2022-09-06T10:51:37.488Z,101389.00
2022-09-06T10:54:16.941Z,101382.91
2022-09-06T10:56:52.618Z,101381.22
2022-09-06T11:00:05.446Z,101390.66
2022-09-06T11:02:43.012Z,101382.75
2022-09-06T11:10:49.756Z,101369.75
2022-09-06T11:13:16.835Z,101374.84
2022-09-06T11:16:02.994Z,101372.56
2022-09-06T11:18:59.346Z,101379.72
2022-09-06T11:21:27.214Z,101387.78
2022-09-06T11:24:01.015Z,101391.41
2022-09-06T11:26:43.524Z,101399.38
2022-09-06T11:29:19.130Z,101392.34
2022-09-06T11:32:34.869Z,101396.66
2022-09-06T11:35:01.337Z,101396.78
2022-09-06T11:37:44.834Z,101394.28
2022-09-06T11:40:26.670Z,101391.53
2022-09-06T11:42:49.681Z,101394.13
2022-09-06T11:45:11.663Z,101405.19
2022-09-06T11:47:48.063Z,101403.22
2022-09-06T11:50:22.176Z,101406.56
2022-09-06T11:53:00.853Z,101410.88
2022-09-06T11:55:32.598Z,101412.13
2022-09-06T11:58:00.004Z,101417.69
2022-09-06T12:00:24.564Z,101410.75
2022-09-06T12:02:46.692Z,101410.31
2022-09-06T12:05:16.881Z,101403.84
2022-09-06T12:08:10.388Z,101399.50
2022-09-06T12:10:42.070Z,101394.38
2022-09-06T12:13:40.330Z,101391.19
2022-09-06T12:16:02.725Z,101395.06
2022-09-06T12:18:43.366Z,101389.06
2022-09-06T12:21:05.418Z,101383.59
2022-09-06T12:23:36.342Z,101386.44
2022-09-06T12:25:58.868Z,101380.63
2022-09-06T12:28:34.731Z,101382.09
2022-09-06T12:30:56.764Z,101380.38
2022-09-06T12:33:33.773Z,101376.41
2022-09-06T12:36:23.751Z,101380.03
2022-09-06T12:39:15.518Z,101381.19
2022-09-06T12:41:43.758Z,101383.81
2022-09-06T12:44:07.814Z,101368.22
2022-09-06T12:46:32.369Z,101362.09
2022-09-06T12:49:23.350Z,101359.91
2022-09-06T12:51:45.526Z,101351.72
2022-09-06T12:54:28.891Z,101353.63
2022-09-06T12:56:52.476Z,101354.56
2022-09-06T12:59:25.275Z,101346.94
2022-09-06T13:02:06.509Z,101351.72
2022-09-06T13:04:46.757Z,101357.94
2022-09-06T13:07:22.014Z,101352.19
2022-09-06T13:09:49.267Z,101347.25
2022-09-06T13:12:32.434Z,101333.66
2022-09-06T13:14:59.758Z,101338.81
2022-09-06T13:17:29.801Z,101350.41
2022-09-06T13:19:51.754Z,101342.00
2022-09-06T13:22:48.793Z,101345.38
2022-09-06T13:25:21.076Z,101328.03
2022-09-06T13:27:46.648Z,101322.25
2022-09-06T13:30:10.849Z,101324.09
2022-09-06T13:32:34.354Z,101318.06
2022-09-06T13:34:59.609Z,101330.19
2022-09-06T13:37:21.441Z,101318.91
2022-09-06T13:39:44.330Z,101322.09
2022-09-06T13:42:35.685Z,101325.28
2022-09-06T13:45:01.986Z,101316.28
2022-09-06T13:47:29.238Z,101313.44
2022-09-06T13:49:51.965Z,101309.88
2022-09-06T13:52:14.958Z,101300.75
2022-09-06T13:54:36.985Z,101299.16
2022-09-06T13:56:58.994Z,101300.03
2022-09-06T13:59:21.201Z,101296.50
2022-09-06T14:01:46.787Z,101293.31
2022-09-06T14:04:14.429Z,101282.56
2022-09-06T14:06:37.022Z,101280.38
2022-09-06T14:09:08.069Z,101280.91
2022-09-06T14:11:30.976Z,101279.66
2022-09-06T14:13:52.997Z,101279.50
2022-09-06T14:16:15.067Z,101277.59
2022-09-06T14:18:37.048Z,101275.69
2022-09-06T14:20:59.174Z,101275.69
2022-09-06T14:23:22.461Z,101274.41
2022-09-06T14:25:44.319Z,101273.41
2022-09-06T14:28:06.338Z,101278.47
2022-09-06T14:30:28.131Z,101277.34
2022-09-06T14:32:49.983Z,101274.19
2022-09-06T14:35:11.902Z,101270.88
2022-09-06T14:37:34.910Z,101269.16
2022-09-06T14:39:56.770Z,101272.19
2022-09-06T14:42:18.648Z,101270.97
2022-09-06T14:44:40.535Z,101272.88
2022-09-06T14:47:03.491Z,101270.50
2022-09-06T14:49:25.441Z,101270.97
2022-09-06T14:51:47.223Z,101271.56
2022-09-06T14:54:13.599Z,101273.63
2022-09-06T14:56:36.549Z,101275.69
2022-09-06T14:59:00.106Z,101274.09
2022-09-06T15:01:27.022Z,101281.31
2022-09-06T15:03:56.593Z,101283.75
2022-09-06T15:06:21.656Z,101275.13
2022-09-06T15:08:43.720Z,101278.72
2022-09-06T15:11:08.264Z,101277.94
2022-09-06T15:13:30.374Z,101271.97
2022-09-06T15:15:56.180Z,101273.41
2022-09-06T15:18:18.036Z,101276.59
2022-09-06T15:20:40.632Z,101270.00
2022-09-06T15:25:51.229Z,101264.88
2022-09-06T15:28:13.176Z,101257.44
2022-09-06T15:30:35.019Z,101249.00
2022-09-06T15:32:56.848Z,101250.06
2022-09-06T15:35:18.659Z,101246.25
2022-09-06T15:37:40.524Z,101236.25
2022-09-06T15:40:03.034Z,101230.72
2022-09-06T15:42:24.952Z,101229.69
2022-09-06T15:44:46.843Z,101221.06
2022-09-06T15:47:09.128Z,101220.09
2022-09-06T15:49:32.610Z,101224.75
2022-09-06T15:51:56.531Z,101232.19
2022-09-06T15:54:41.166Z,101228.81
2022-09-06T15:57:03.797Z,101237.59
2022-09-06T15:59:25.696Z,101227.25
2022-09-06T16:01:47.617Z,101232.25
2022-09-06T16:04:10.091Z,101231.59
2022-09-06T16:06:44.174Z,101223.41
2022-09-06T16:09:17.609Z,101226.25
2022-09-06T16:11:39.897Z,101235.78
2022-09-06T16:14:05.754Z,101231.13
2022-09-06T16:16:29.439Z,101229.53
2022-09-06T16:18:54.653Z,101223.97
2022-09-06T16:21:23.778Z,101227.38
2022-09-06T16:23:59.806Z,101219.22
2022-09-06T16:26:25.072Z,101228.53
2022-09-06T16:28:48.717Z,101231.69
2022-09-06T16:31:11.353Z,101222.72
2022-09-06T16:33:36.141Z,101226.56
2022-09-06T16:36:04.320Z,101225.50
2022-09-06T16:38:31.783Z,101223.00
2022-09-06T16:40:53.634Z,101212.44
2022-09-06T16:43:16.142Z,101220.34
2022-09-06T16:45:39.760Z,101213.63
2022-09-06T16:48:01.736Z,101219.84
2022-09-06T16:50:23.922Z,101219.59
2022-09-06T16:52:45.754Z,101218.91
2022-09-06T16:55:08.230Z,101223.41
2022-09-06T16:57:30.083Z,101228.41
2022-09-06T16:59:52.329Z,101226.91
2022-09-06T17:02:14.381Z,101226.22
2022-09-06T17:04:36.263Z,101233.66
2022-09-06T17:06:58.063Z,101227.38
2022-09-06T17:09:20.132Z,101232.91
2022-09-06T17:11:42.721Z,101227.88
2022-09-06T17:14:05.053Z,101226.09
2022-09-06T17:16:45.522Z,101226.63
2022-09-06T17:19:08.916Z,101224.75
2022-09-06T17:21:31.762Z,101227.75
2022-09-06T17:23:54.327Z,101221.13
2022-09-06T17:26:21.317Z,101220.06
2022-09-06T17:28:43.320Z,101216.97
2022-09-06T17:31:07.304Z,101220.31
2022-09-06T17:33:30.666Z,101226.94
2022-09-06T17:35:52.477Z,101222.25
2022-09-06T17:38:16.275Z,101222.75
2022-09-06T17:40:38.829Z,101212.81
2022-09-06T17:43:00.787Z,101215.38
2022-09-06T17:45:22.896Z,101221.09
2022-09-06T17:47:44.741Z,101218.00
2022-09-06T17:50:07.006Z,101215.69
2022-09-06T17:52:29.761Z,101212.59
2022-09-06T17:54:52.182Z,101210.34
2022-09-06T17:57:14.046Z,101206.50
2022-09-06T17:59:36.324Z,101213.94
2022-09-06T18:01:58.211Z,101205.91
2022-09-06T18:04:20.032Z,101206.78
2022-09-06T18:06:46.334Z,101198.38
2022-09-06T18:09:14.801Z,101204.09
2022-09-06T18:11:39.725Z,101206.22
2022-09-06T18:14:09.015Z,101207.94
2022-09-06T18:16:34.114Z,101206.41
2022-09-06T18:19:00.227Z,101208.53
2022-09-06T18:21:24.134Z,101207.78
2022-09-06T18:23:46.493Z,101209.44
2022-09-06T18:26:09.130Z,101207.50
2022-09-06T18:28:32.896Z,101201.53
2022-09-06T18:31:03.713Z,101191.91
2022-09-06T18:33:26.803Z,101185.16
2022-09-06T18:35:50.501Z,101177.53
2022-09-06T18:38:12.760Z,101174.00
2022-09-06T18:40:34.645Z,101173.63
2022-09-06T18:42:56.444Z,101172.06
2022-09-06T18:45:18.320Z,101174.59
2022-09-06T18:47:40.199Z,101177.09
2022-09-06T18:50:04.358Z,101174.34
2022-09-06T18:52:26.348Z,101173.25
2022-09-06T18:54:49.400Z,101175.34
2022-09-06T18:57:11.787Z,101167.72
2022-09-06T18:59:33.878Z,101171.00
2022-09-06T19:01:55.972Z,101172.66
2022-09-06T19:04:17.932Z,101169.88
2022-09-06T19:06:43.062Z,101162.28
2022-09-06T19:09:10.091Z,101163.56
2022-09-06T19:11:33.218Z,101152.34
2022-09-06T19:13:57.877Z,101152.38
2022-09-06T19:16:22.254Z,101138.34
2022-09-06T19:18:44.207Z,101154.59
2022-09-06T19:21:17.387Z,101157.53
2022-09-06T19:23:48.190Z,101144.00
2022-09-06T19:26:16.906Z,101144.44
2022-09-06T19:28:40.237Z,101136.00
2022-09-06T19:31:13.441Z,101136.81
2022-09-06T19:33:36.390Z,101143.28
2022-09-06T19:36:10.941Z,101141.69
2022-09-06T19:38:52.707Z,101142.50
2022-09-06T19:41:17.035Z,101135.63
2022-09-06T19:43:39.851Z,101128.84
2022-09-06T19:46:08.362Z,101130.41
2022-09-06T19:48:31.809Z,101137.63
2022-09-06T19:50:53.844Z,101128.00
2022-09-06T19:53:15.707Z,101122.44
2022-09-06T19:55:37.900Z,101112.44
2022-09-06T19:58:01.811Z,101108.03
2022-09-06T20:00:23.807Z,101115.38
2022-09-06T20:02:45.771Z,101121.84
2022-09-06T20:05:08.118Z,101113.03
2022-09-06T20:07:29.945Z,101108.25
2022-09-06T20:09:52.691Z,101106.63
2022-09-06T20:12:14.694Z,101107.81
2022-09-06T20:14:36.534Z,101101.75
2022-09-06T20:17:16.439Z,101100.16
2022-09-06T20:19:40.623Z,101094.56
2022-09-06T20:22:02.982Z,101080.59
2022-09-06T20:24:24.999Z,101073.84
2022-09-06T20:26:47.879Z,101077.16
2022-09-06T20:29:09.896Z,101071.56
2022-09-06T20:31:33.625Z,101070.03
2022-09-06T20:33:56.327Z,101060.81
2022-09-06T20:36:19.429Z,101058.06
2022-09-06T20:38:44.635Z,101055.66
2022-09-06T20:41:18.297Z,101042.81
2022-09-06T20:43:41.418Z,101038.88
2022-09-06T20:46:17.166Z,101038.09
2022-09-06T20:48:44.208Z,101024.88
2022-09-06T20:51:11.008Z,101027.75
2022-09-06T20:53:37.761Z,101015.69
2022-09-06T20:56:04.579Z,101016.53
2022-09-06T20:58:27.342Z,101021.78
2022-09-06T21:00:49.377Z,101018.97
2022-09-06T21:03:11.384Z,101012.59
2022-09-06T21:05:33.157Z,101015.81
2022-09-06T21:07:55.299Z,101012.22
2022-09-06T21:10:17.258Z,101017.06
2022-09-06T21:12:39.213Z,101020.28
2022-09-06T21:15:01.005Z,101015.84
2022-09-06T21:17:22.931Z,101021.94
2022-09-06T21:19:44.790Z,101020.69
2022-09-06T21:22:06.760Z,101031.53
2022-09-06T21:24:28.791Z,101026.72
2022-09-06T21:26:50.714Z,101023.09
2022-09-06T21:29:12.627Z,101024.69
2022-09-06T21:31:37.167Z,101022.69
2022-09-06T21:34:03.774Z,101020.66
2022-09-06T21:36:30.131Z,101020.66
2022-09-06T21:39:01.251Z,101023.00
2022-09-06T21:41:23.980Z,101020.97
2022-09-06T21:43:46.940Z,101014.94
2022-09-06T21:46:15.469Z,101010.50
2022-09-06T21:48:43.834Z,101005.66
2022-09-06T21:51:13.026Z,101014.94
2022-09-06T21:53:36.628Z,101004.09
2022-09-06T21:56:03.663Z,100992.44
2022-09-06T21:58:25.464Z,100974.31
2022-09-06T22:00:53.279Z,100974.69
2022-09-06T22:03:15.372Z,100967.47
2022-09-06T22:05:37.249Z,100985.94
2022-09-06T22:07:59.107Z,100998.38
2022-09-06T22:10:24.160Z,100994.69
2022-09-06T22:12:46.092Z,100987.06
2022-09-06T22:15:10.628Z,100991.59
2022-09-06T22:17:32.404Z,100975.34
2022-09-06T22:19:54.264Z,100977.56
2022-09-06T22:22:16.258Z,100970.41
2022-09-06T22:24:38.138Z,100980.63
2022-09-06T22:26:59.961Z,100973.47
2022-09-06T22:29:22.384Z,100972.81
2022-09-06T22:31:44.423Z,100981.31
2022-09-06T22:34:07.924Z,100997.03
2022-09-06T22:36:30.120Z,101004.28
2022-09-06T22:38:57.321Z,101017.16
2022-09-06T22:41:19.611Z,101057.75
2022-09-06T22:43:41.402Z,101071.34
2022-09-06T22:46:07.499Z,101093.88
2022-09-06T22:48:29.497Z,101115.97
2022-09-06T22:50:51.456Z,101142.91
2022-09-06T22:53:13.379Z,101161.41
2022-09-06T22:55:36.412Z,101158.59
2022-09-06T22:57:58.319Z,101163.91
2022-09-06T23:00:20.170Z,101161.16
2022-09-06T23:02:42.005Z,101138.78
2022-09-06T23:05:04.458Z,101138.88
2022-09-06T23:07:26.348Z,101154.53
2022-09-06T23:09:48.265Z,101180.22
2022-09-06T23:12:10.095Z,101169.00
2022-09-06T23:14:31.887Z,101190.66
2022-09-06T23:16:53.672Z,101202.66
2022-09-06T23:19:15.685Z,101201.88
2022-09-06T23:21:37.516Z,101196.25
2022-09-06T23:23:59.407Z,101171.81
2022-09-06T23:26:28.295Z,101184.63
2022-09-06T23:28:51.861Z,101203.84
2022-09-06T23:31:16.860Z,101184.63
2022-09-06T23:33:39.188Z,101182.59
2022-09-06T23:36:01.131Z,101195.03
2022-09-06T23:38:23.152Z,101190.22
2022-09-06T23:40:44.952Z,101177.81
2022-09-06T23:43:06.865Z,101169.78
2022-09-06T23:45:28.905Z,101172.22
2022-09-06T23:47:50.713Z,101187.41
2022-09-06T23:50:12.576Z,101191.41
2022-09-06T23:52:34.358Z,101198.59
2022-09-06T23:54:56.185Z,101191.38
2022-09-06T23:57:18.015Z,101209.75
2022-09-06T23:59:39.850Z,101220.97
